Main page
METAR-TAF:

METAR-TAF

Airports :

Aba Tenna Dejazmach Yilma International Airport

Dire Dawa, Ethiopia

latitude: 09-36N, longitude: 041-52E, elevation: 1146 m

METAR: missing

Time: 12:18 (09:18 UTC)

Forecast

The report was made 5 hours and 48 minutes ago, at 03:30 UTC
Forecast valid from 22 at 04 UTC to 23 at 10 UTC
Wind 6 kt from the South
Visibility 10 km or more
Scattered clouds at a height of 8000 ft
Temporary
from 22 at 11 UTC to 22 at 13 UTC

TAF: HADR 220330Z 2204/2310 18006KT 9999 SCT080 TEMPO 2211/2213 BKN 028

Weather observations and forecasts of more than 4000 airports (METAR and TAF reports).

The available stations are represented by yellow and red dots on the map.

Hover mouse over dot to see the name of the station.

Then click to see weather observations and forecasts.

To change the map : click on the green buttons with a black cross to zoom in, on the green button with a dash to zoom out, or on the green arrows for adjacent maps.


METAR-TAF: